sensor_id;sensor_type;location;lat;lon;timestamp;pressure;altitude;pressure_sealevel;temperature;humidity
75717;BME280;64333;50.138;14.332;2023-05-10T00:02:01;97721.47;;;9.56;65.49
75717;BME280;64333;50.138;14.332;2023-05-10T00:04:26;97711.44;;;9.50;65.67
75717;BME280;64333;50.138;14.332;2023-05-10T00:06:53;97710.69;;;9.48;65.86
75717;BME280;64333;50.138;14.332;2023-05-10T00:09:18;97712.78;;;9.40;66.04
75717;BME280;64333;50.138;14.332;2023-05-10T00:11:44;97707.16;;;9.32;66.27
75717;BME280;64333;50.138;14.332;2023-05-10T00:14:09;97711.50;;;9.31;66.41
75717;BME280;64333;50.138;14.332;2023-05-10T00:16:34;97708.94;;;9.31;66.36
75717;BME280;64333;50.138;14.332;2023-05-10T00:19:00;97689.88;;;9.17;66.73
75717;BME280;64333;50.138;14.332;2023-05-10T00:21:25;97701.78;;;9.19;66.84
75717;BME280;64333;50.138;14.332;2023-05-10T00:23:51;97700.09;;;9.18;67.08
75717;BME280;64333;50.138;14.332;2023-05-10T00:26:17;97696.06;;;9.13;67.13
75717;BME280;64333;50.138;14.332;2023-05-10T00:28:42;97702.22;;;9.10;67.48
75717;BME280;64333;50.138;14.332;2023-05-10T00:31:07;97698.44;;;8.99;67.79
75717;BME280;64333;50.138;14.332;2023-05-10T00:33:33;97695.34;;;8.92;68.00
75717;BME280;64333;50.138;14.332;2023-05-10T00:35:58;97699.03;;;8.87;68.65
75717;BME280;64333;50.138;14.332;2023-05-10T00:38:23;97702.78;;;8.80;68.66
75717;BME280;64333;50.138;14.332;2023-05-10T00:40:49;97702.09;;;8.76;69.29
75717;BME280;64333;50.138;14.332;2023-05-10T00:43:14;97691.31;;;8.68;69.53
75717;BME280;64333;50.138;14.332;2023-05-10T00:45:40;97692.50;;;8.61;69.18
75717;BME280;64333;50.138;14.332;2023-05-10T00:48:06;97692.88;;;8.54;69.89
75717;BME280;64333;50.138;14.332;2023-05-10T00:50:32;97686.28;;;8.47;70.40
75717;BME280;64333;50.138;14.332;2023-05-10T00:52:59;97691.09;;;8.36;70.91
75717;BME280;64333;50.138;14.332;2023-05-10T00:55:25;97679.16;;;8.35;71.15
75717;BME280;64333;50.138;14.332;2023-05-10T00:57:52;97673.84;;;8.19;70.97
75717;BME280;64333;50.138;14.332;2023-05-10T01:00:18;97662.13;;;8.12;71.48
75717;BME280;64333;50.138;14.332;2023-05-10T01:02:47;97686.56;;;8.22;71.41
75717;BME280;64333;50.138;14.332;2023-05-10T01:05:13;97679.00;;;8.18;71.70
75717;BME280;64333;50.138;14.332;2023-05-10T01:07:39;97683.34;;;8.17;71.72
75717;BME280;64333;50.138;14.332;2023-05-10T01:10:08;97665.03;;;8.05;72.26
75717;BME280;64333;50.138;14.332;2023-05-10T01:12:35;97675.47;;;8.02;71.93
75717;BME280;64333;50.138;14.332;2023-05-10T01:15:02;97673.16;;;7.96;72.67
75717;BME280;64333;50.138;14.332;2023-05-10T01:17:28;97681.63;;;7.98;72.77
75717;BME280;64333;50.138;14.332;2023-05-10T01:19:54;97674.94;;;7.94;73.05
75717;BME280;64333;50.138;14.332;2023-05-10T01:22:49;97677.59;;;7.92;72.86
75717;BME280;64333;50.138;14.332;2023-05-10T01:25:54;97677.91;;;7.85;73.65
75717;BME280;64333;50.138;14.332;2023-05-10T01:41:42;97657.25;;;7.48;75.27
75717;BME280;64333;50.138;14.332;2023-05-10T01:46:36;97669.28;;;7.46;76.13
75717;BME280;64333;50.138;14.332;2023-05-10T01:49:03;97663.38;;;7.44;76.06
75717;BME280;64333;50.138;14.332;2023-05-10T01:51:37;97655.75;;;7.42;76.26
75717;BME280;64333;50.138;14.332;2023-05-10T01:54:05;97657.50;;;7.42;76.11
75717;BME280;64333;50.138;14.332;2023-05-10T01:56:33;97649.84;;;7.40;76.17
75717;BME280;64333;50.138;14.332;2023-05-10T01:59:00;97654.25;;;7.37;76.24
75717;BME280;64333;50.138;14.332;2023-05-10T02:01:30;97651.03;;;7.32;76.59
75717;BME280;64333;50.138;14.332;2023-05-10T02:03:57;97656.94;;;7.34;76.71
75717;BME280;64333;50.138;14.332;2023-05-10T02:06:24;97651.19;;;7.29;76.80
75717;BME280;64333;50.138;14.332;2023-05-10T02:08:51;97654.72;;;7.26;76.47
75717;BME280;64333;50.138;14.332;2023-05-10T02:11:18;97656.50;;;7.24;76.92
75717;BME280;64333;50.138;14.332;2023-05-10T02:13:49;97656.09;;;7.13;76.75
75717;BME280;64333;50.138;14.332;2023-05-10T02:16:16;97657.00;;;7.12;77.43
75717;BME280;64333;50.138;14.332;2023-05-10T02:18:43;97673.31;;;7.11;77.77
75717;BME280;64333;50.138;14.332;2023-05-10T02:21:10;97662.25;;;7.09;78.13
75717;BME280;64333;50.138;14.332;2023-05-10T02:23:36;97664.03;;;7.07;78.02
75717;BME280;64333;50.138;14.332;2023-05-10T02:26:02;97666.09;;;6.99;78.08
75717;BME280;64333;50.138;14.332;2023-05-10T02:28:29;97663.53;;;6.99;78.45
75717;BME280;64333;50.138;14.332;2023-05-10T02:30:56;97661.72;;;7.01;78.82
75717;BME280;64333;50.138;14.332;2023-05-10T02:33:22;97669.66;;;6.95;78.87
75717;BME280;64333;50.138;14.332;2023-05-10T02:35:47;97663.81;;;6.92;78.89
75717;BME280;64333;50.138;14.332;2023-05-10T02:38:14;97663.63;;;6.96;79.24
75717;BME280;64333;50.138;14.332;2023-05-10T02:40:42;97665.19;;;7.00;78.92
75717;BME280;64333;50.138;14.332;2023-05-10T02:43:12;97652.41;;;6.99;78.90
75717;BME280;64333;50.138;14.332;2023-05-10T02:45:40;97652.16;;;7.05;78.89
75717;BME280;64333;50.138;14.332;2023-05-10T02:48:06;97656.41;;;7.06;78.59
75717;BME280;64333;50.138;14.332;2023-05-10T02:50:33;97655.50;;;7.07;79.04
75717;BME280;64333;50.138;14.332;2023-05-10T02:53:08;97646.13;;;7.06;78.73
75717;BME280;64333;50.138;14.332;2023-05-10T02:55:40;97647.09;;;7.03;79.23
75717;BME280;64333;50.138;14.332;2023-05-10T02:58:06;97656.47;;;7.04;78.98
75717;BME280;64333;50.138;14.332;2023-05-10T03:00:31;97646.38;;;7.00;79.70
75717;BME280;64333;50.138;14.332;2023-05-10T03:02:57;97651.50;;;7.00;79.92
75717;BME280;64333;50.138;14.332;2023-05-10T03:05:22;97650.75;;;6.98;79.62
75717;BME280;64333;50.138;14.332;2023-05-10T03:07:48;97650.75;;;6.98;80.02
75717;BME280;64333;50.138;14.332;2023-05-10T03:10:14;97645.59;;;6.98;79.70
75717;BME280;64333;50.138;14.332;2023-05-10T03:17:55;97638.44;;;7.06;79.57
75717;BME280;64333;50.138;14.332;2023-05-10T03:20:26;97635.63;;;7.12;79.69
75717;BME280;64333;50.138;14.332;2023-05-10T03:22:55;97639.75;;;7.16;79.26
75717;BME280;64333;50.138;14.332;2023-05-10T03:25:25;97641.47;;;7.15;79.76
75717;BME280;64333;50.138;14.332;2023-05-10T03:27:51;97639.75;;;7.16;79.18
75717;BME280;64333;50.138;14.332;2023-05-10T03:30:17;97652.63;;;7.14;79.44
75717;BME280;64333;50.138;14.332;2023-05-10T03:32:43;97653.53;;;7.13;79.46
75717;BME280;64333;50.138;14.332;2023-05-10T03:35:10;97654.34;;;7.14;79.96
75717;BME280;64333;50.138;14.332;2023-05-10T03:37:36;97665.53;;;7.13;79.54
75717;BME280;64333;50.138;14.332;2023-05-10T03:40:02;97669.84;;;7.12;79.96
75717;BME280;64333;50.138;14.332;2023-05-10T03:42:28;97673.22;;;7.13;79.52
75717;BME280;64333;50.138;14.332;2023-05-10T03:44:53;97668.22;;;7.10;80.02
75717;BME280;64333;50.138;14.332;2023-05-10T03:47:19;97667.31;;;7.11;80.13
75717;BME280;64333;50.138;14.332;2023-05-10T03:49:45;97674.13;;;7.12;79.97
75717;BME280;64333;50.138;14.332;2023-05-10T03:52:10;97673.31;;;7.11;79.76
75717;BME280;64333;50.138;14.332;2023-05-10T03:54:36;97670.91;;;7.07;79.69
75717;BME280;64333;50.138;14.332;2023-05-10T03:57:01;97665.00;;;7.05;79.33
75717;BME280;64333;50.138;14.332;2023-05-10T03:59:28;97661.72;;;7.01;79.76
75717;BME280;64333;50.138;14.332;2023-05-10T04:01:53;97668.56;;;7.01;79.91
75717;BME280;64333;50.138;14.332;2023-05-10T04:04:19;97670.31;;;7.00;79.96
75717;BME280;64333;50.138;14.332;2023-05-10T04:06:46;97672.84;;;7.02;79.99
75717;BME280;64333;50.138;14.332;2023-05-10T04:09:11;97662.66;;;6.99;80.13
75717;BME280;64333;50.138;14.332;2023-05-10T04:11:36;97669.38;;;7.03;80.28
75717;BME280;64333;50.138;14.332;2023-05-10T04:14:02;97669.22;;;7.06;80.16
75717;BME280;64333;50.138;14.332;2023-05-10T04:16:27;97664.81;;;7.09;80.89
75717;BME280;64333;50.138;14.332;2023-05-10T04:18:53;97664.13;;;7.26;79.87
75717;BME280;64333;50.138;14.332;2023-05-10T04:21:18;97667.16;;;7.35;79.71
75717;BME280;64333;50.138;14.332;2023-05-10T04:23:44;97667.63;;;7.45;79.39
75717;BME280;64333;50.138;14.332;2023-05-10T04:26:09;97663.91;;;7.52;79.37
75717;BME280;64333;50.138;14.332;2023-05-10T04:28:34;97666.97;;;7.60;78.59
75717;BME280;64333;50.138;14.332;2023-05-10T04:31:04;97667.53;;;7.68;78.81
75717;BME280;64333;50.138;14.332;2023-05-10T04:33:30;97660.44;;;7.73;78.11
75717;BME280;64333;50.138;14.332;2023-05-10T04:35:55;97666.00;;;7.82;77.97
75717;BME280;64333;50.138;14.332;2023-05-10T04:38:21;97653.59;;;7.92;77.39
75717;BME280;64333;50.138;14.332;2023-05-10T04:40:46;97657.31;;;8.05;77.10
75717;BME280;64333;50.138;14.332;2023-05-10T04:43:11;97662.69;;;8.19;76.95
75717;BME280;64333;50.138;14.332;2023-05-10T04:45:37;97664.81;;;8.29;76.79
75717;BME280;64333;50.138;14.332;2023-05-10T04:48:03;97668.59;;;8.41;76.30
75717;BME280;64333;50.138;14.332;2023-05-10T04:50:28;97658.28;;;8.41;76.42
75717;BME280;64333;50.138;14.332;2023-05-10T04:52:53;97660.91;;;8.58;75.86
75717;BME280;64333;50.138;14.332;2023-05-10T04:55:19;97661.00;;;8.75;76.09
75717;BME280;64333;50.138;14.332;2023-05-10T04:57:44;97655.47;;;8.82;75.25
75717;BME280;64333;50.138;14.332;2023-05-10T05:00:10;97662.84;;;8.90;75.75
75717;BME280;64333;50.138;14.332;2023-05-10T05:02:36;97661.28;;;9.04;76.46
75717;BME280;64333;50.138;14.332;2023-05-10T05:05:01;97669.41;;;9.14;75.94
75717;BME280;64333;50.138;14.332;2023-05-10T05:07:27;97661.06;;;9.26;75.12
75717;BME280;64333;50.138;14.332;2023-05-10T05:09:52;97652.31;;;9.30;74.55
75717;BME280;64333;50.138;14.332;2023-05-10T05:12:17;97665.50;;;9.41;74.81
75717;BME280;64333;50.138;14.332;2023-05-10T05:14:43;97662.53;;;9.48;75.05
75717;BME280;64333;50.138;14.332;2023-05-10T05:17:08;97665.41;;;9.59;74.22
75717;BME280;64333;50.138;14.332;2023-05-10T05:19:34;97652.28;;;9.64;73.57
75717;BME280;64333;50.138;14.332;2023-05-10T05:21:59;97670.72;;;9.90;73.25
75717;BME280;64333;50.138;14.332;2023-05-10T05:24:24;97664.34;;;9.97;73.25
75717;BME280;64333;50.138;14.332;2023-05-10T05:26:50;97680.47;;;10.18;74.08
75717;BME280;64333;50.138;14.332;2023-05-10T05:29:15;97684.81;;;10.33;72.19
75717;BME280;64333;50.138;14.332;2023-05-10T05:31:41;97675.09;;;10.38;71.80
75717;BME280;64333;50.138;14.332;2023-05-10T05:34:06;97679.44;;;10.53;70.08
75717;BME280;64333;50.138;14.332;2023-05-10T05:36:32;97677.22;;;10.62;70.04
75717;BME280;64333;50.138;14.332;2023-05-10T05:38:57;97678.13;;;10.77;70.10
75717;BME280;64333;50.138;14.332;2023-05-10T05:41:23;97680.22;;;10.85;69.98
75717;BME280;64333;50.138;14.332;2023-05-10T05:43:49;97677.88;;;10.96;69.67
75717;BME280;64333;50.138;14.332;2023-05-10T05:46:15;97674.72;;;11.07;69.89
75717;BME280;64333;50.138;14.332;2023-05-10T05:48:40;97680.22;;;11.16;68.32
75717;BME280;64333;50.138;14.332;2023-05-10T05:51:06;97677.69;;;11.30;68.85
75717;BME280;64333;50.138;14.332;2023-05-10T05:53:31;97674.97;;;11.47;68.50
75717;BME280;64333;50.138;14.332;2023-05-10T05:55:58;97679.13;;;11.65;69.43
75717;BME280;64333;50.138;14.332;2023-05-10T05:58:24;97675.09;;;11.75;68.77
75717;BME280;64333;50.138;14.332;2023-05-10T06:00:51;97678.94;;;11.98;65.90
75717;BME280;64333;50.138;14.332;2023-05-10T06:03:17;97683.09;;;12.14;62.95
75717;BME280;64333;50.138;14.332;2023-05-10T06:05:42;97679.69;;;12.28;62.94
75717;BME280;64333;50.138;14.332;2023-05-10T06:08:08;97678.94;;;12.40;61.34
75717;BME280;64333;50.138;14.332;2023-05-10T06:10:33;97677.56;;;12.48;61.11
75717;BME280;64333;50.138;14.332;2023-05-10T06:12:59;97681.78;;;12.63;59.96
75717;BME280;64333;50.138;14.332;2023-05-10T06:15:24;97678.09;;;12.67;60.23
75717;BME280;64333;50.138;14.332;2023-05-10T06:17:50;97672.34;;;12.76;60.00
75717;BME280;64333;50.138;14.332;2023-05-10T06:20:16;97680.06;;;12.90;59.61
75717;BME280;64333;50.138;14.332;2023-05-10T06:22:41;97682.50;;;13.07;58.59
75717;BME280;64333;50.138;14.332;2023-05-10T06:25:07;97685.03;;;13.21;58.34
75717;BME280;64333;50.138;14.332;2023-05-10T06:27:33;97687.88;;;13.31;57.46
75717;BME280;64333;50.138;14.332;2023-05-10T06:29:59;97677.84;;;13.39;57.69
75717;BME280;64333;50.138;14.332;2023-05-10T06:32:24;97683.03;;;13.51;58.17
75717;BME280;64333;50.138;14.332;2023-05-10T06:34:50;97685.25;;;13.57;57.25
75717;BME280;64333;50.138;14.332;2023-05-10T06:37:16;97690.38;;;13.71;56.70
75717;BME280;64333;50.138;14.332;2023-05-10T06:39:41;97689.38;;;13.86;56.23
75717;BME280;64333;50.138;14.332;2023-05-10T06:42:07;97688.72;;;14.22;55.96
75717;BME280;64333;50.138;14.332;2023-05-10T06:44:32;97694.09;;;14.31;55.91
75717;BME280;64333;50.138;14.332;2023-05-10T06:46:57;97688.38;;;14.39;55.16
75717;BME280;64333;50.138;14.332;2023-05-10T06:49:23;97683.06;;;14.65;53.88
75717;BME280;64333;50.138;14.332;2023-05-10T06:51:48;97683.75;;;14.92;53.14
75717;BME280;64333;50.138;14.332;2023-05-10T06:54:14;97683.50;;;14.95;53.24
75717;BME280;64333;50.138;14.332;2023-05-10T06:56:39;97684.44;;;14.94;53.58
75717;BME280;64333;50.138;14.332;2023-05-10T06:59:05;97686.41;;;15.27;52.85
75717;BME280;64333;50.138;14.332;2023-05-10T07:01:30;97685.91;;;15.34;51.98
75717;BME280;64333;50.138;14.332;2023-05-10T07:03:55;97692.22;;;15.30;52.46
75717;BME280;64333;50.138;14.332;2023-05-10T07:06:21;97686.44;;;15.50;52.62
75717;BME280;64333;50.138;14.332;2023-05-10T07:08:46;97685.94;;;15.69;51.93
75717;BME280;64333;50.138;14.332;2023-05-10T07:11:11;97681.16;;;15.97;51.37
75717;BME280;64333;50.138;14.332;2023-05-10T07:13:37;97683.94;;;16.18;49.96
75717;BME280;64333;50.138;14.332;2023-05-10T07:16:04;97680.38;;;16.19;50.75
75717;BME280;64333;50.138;14.332;2023-05-10T07:18:31;97676.63;;;16.67;48.40
75717;BME280;64333;50.138;14.332;2023-05-10T07:20:57;97676.06;;;16.41;48.88
75717;BME280;64333;50.138;14.332;2023-05-10T07:23:22;97678.31;;;16.90;47.34
75717;BME280;64333;50.138;14.332;2023-05-10T07:25:49;97678.56;;;17.29;47.07
75717;BME280;64333;50.138;14.332;2023-05-10T07:28:17;97681.06;;;17.41;47.95
75717;BME280;64333;50.138;14.332;2023-05-10T07:30:43;97672.44;;;17.61;46.45
75717;BME280;64333;50.138;14.332;2023-05-10T07:33:10;97677.38;;;17.96;44.99
75717;BME280;64333;50.138;14.332;2023-05-10T07:35:36;97678.59;;;18.12;44.86
75717;BME280;64333;50.138;14.332;2023-05-10T07:38:02;97676.34;;;18.08;44.10
75717;BME280;64333;50.138;14.332;2023-05-10T07:40:28;97685.97;;;18.28;42.97
75717;BME280;64333;50.138;14.332;2023-05-10T07:42:53;97678.28;;;18.06;43.28
75717;BME280;64333;50.138;14.332;2023-05-10T07:45:19;97673.97;;;18.25;42.56
75717;BME280;64333;50.138;14.332;2023-05-10T07:47:44;97680.41;;;18.62;42.47
75717;BME280;64333;50.138;14.332;2023-05-10T07:50:10;97676.09;;;18.52;43.68
75717;BME280;64333;50.138;14.332;2023-05-10T07:52:35;97667.00;;;18.86;41.82
75717;BME280;64333;50.138;14.332;2023-05-10T07:55:00;97680.19;;;19.14;40.65
75717;BME280;64333;50.138;14.332;2023-05-10T07:57:26;97678.97;;;19.28;40.49
75717;BME280;64333;50.138;14.332;2023-05-10T07:59:51;97674.31;;;19.50;40.64
75717;BME280;64333;50.138;14.332;2023-05-10T08:02:16;97683.44;;;19.94;39.26
75717;BME280;64333;50.138;14.332;2023-05-10T08:04:42;97667.16;;;20.00;38.38
75717;BME280;64333;50.138;14.332;2023-05-10T08:07:07;97678.28;;;20.40;38.00
75717;BME280;64333;50.138;14.332;2023-05-10T08:09:33;97695.16;;;20.09;38.32
75717;BME280;64333;50.138;14.332;2023-05-10T08:11:58;97699.03;;;20.05;37.93
75717;BME280;64333;50.138;14.332;2023-05-10T08:14:25;97683.16;;;20.06;38.44
75717;BME280;64333;50.138;14.332;2023-05-10T08:16:50;97680.22;;;20.47;37.93
75717;BME280;64333;50.138;14.332;2023-05-10T08:19:16;97680.56;;;20.98;36.61
75717;BME280;64333;50.138;14.332;2023-05-10T08:21:44;97677.66;;;21.28;36.50
75717;BME280;64333;50.138;14.332;2023-05-10T08:24:10;97678.06;;;21.51;36.26
75717;BME280;64333;50.138;14.332;2023-05-10T08:26:35;97694.00;;;21.67;35.50
75717;BME280;64333;50.138;14.332;2023-05-10T08:29:00;97697.41;;;22.20;34.79
75717;BME280;64333;50.138;14.332;2023-05-10T08:31:26;97686.09;;;21.84;36.12
75717;BME280;64333;50.138;14.332;2023-05-10T08:33:51;97682.38;;;22.47;34.14
75717;BME280;64333;50.138;14.332;2023-05-10T08:36:18;97683.31;;;22.72;33.10
75717;BME280;64333;50.138;14.332;2023-05-10T08:38:47;97691.69;;;23.01;32.48
75717;BME280;64333;50.138;14.332;2023-05-10T08:41:13;97675.66;;;22.86;33.46
75717;BME280;64333;50.138;14.332;2023-05-10T08:43:38;97686.25;;;22.94;33.45
75717;BME280;64333;50.138;14.332;2023-05-10T08:46:05;97680.63;;;23.31;32.57
75717;BME280;64333;50.138;14.332;2023-05-10T08:48:33;97675.72;;;23.44;32.70
75717;BME280;64333;50.138;14.332;2023-05-10T08:51:00;97694.91;;;23.70;32.05
75717;BME280;64333;50.138;14.332;2023-05-10T08:53:26;97679.13;;;24.25;30.42
75717;BME280;64333;50.138;14.332;2023-05-10T08:55:52;97688.22;;;24.93;29.76
75717;BME280;64333;50.138;14.332;2023-05-10T08:58:19;97681.69;;;25.20;29.28
75717;BME280;64333;50.138;14.332;2023-05-10T09:00:45;97684.97;;;25.30;29.18
75717;BME280;64333;50.138;14.332;2023-05-10T09:03:10;97686.34;;;24.71;30.74
75717;BME280;64333;50.138;14.332;2023-05-10T09:05:36;97675.06;;;25.54;29.26
75717;BME280;64333;50.138;14.332;2023-05-10T09:08:02;97678.44;;;25.71;29.95
75717;BME280;64333;50.138;14.332;2023-05-10T09:10:27;97678.63;;;27.17;26.38
75717;BME280;64333;50.138;14.332;2023-05-10T09:12:57;97683.69;;;27.48;26.00
75717;BME280;64333;50.138;14.332;2023-05-10T09:15:23;97685.97;;;27.86;25.35
75717;BME280;64333;50.138;14.332;2023-05-10T09:17:49;97675.66;;;27.77;25.34
75717;BME280;64333;50.138;14.332;2023-05-10T09:20:15;97681.22;;;28.03;25.18
75717;BME280;64333;50.138;14.332;2023-05-10T09:22:42;97683.19;;;28.36;24.52
75717;BME280;64333;50.138;14.332;2023-05-10T09:27:35;97691.72;;;27.54;25.40
75717;BME280;64333;50.138;14.332;2023-05-10T09:30:02;97685.44;;;26.83;26.44
75717;BME280;64333;50.138;14.332;2023-05-10T09:32:39;97684.53;;;28.05;25.00
75717;BME280;64333;50.138;14.332;2023-05-10T09:35:13;97670.06;;;27.36;25.53
75717;BME280;64333;50.138;14.332;2023-05-10T09:37:40;97673.56;;;27.08;25.71
75717;BME280;64333;50.138;14.332;2023-05-10T09:40:22;97679.00;;;28.27;24.12
75717;BME280;64333;50.138;14.332;2023-05-10T09:45:22;97669.38;;;28.26;24.40
75717;BME280;64333;50.138;14.332;2023-05-10T09:47:47;97682.22;;;27.45;25.44
75717;BME280;64333;50.138;14.332;2023-05-10T09:50:13;97688.66;;;26.78;25.96
75717;BME280;64333;50.138;14.332;2023-05-10T09:52:50;97673.47;;;26.58;26.26
75717;BME280;64333;50.138;14.332;2023-05-10T09:55:17;97676.00;;;27.38;25.54
75717;BME280;64333;50.138;14.332;2023-05-10T09:57:43;97675.78;;;27.90;24.89
75717;BME280;64333;50.138;14.332;2023-05-10T10:00:08;97662.22;;;28.27;24.83
75717;BME280;64333;50.138;14.332;2023-05-10T10:02:38;97682.63;;;29.02;23.38
75717;BME280;64333;50.138;14.332;2023-05-10T10:05:06;97678.91;;;29.37;22.65
75717;BME280;64333;50.138;14.332;2023-05-10T10:07:32;97666.09;;;29.07;23.16
75717;BME280;64333;50.138;14.332;2023-05-10T10:09:58;97675.63;;;29.95;22.67
75717;BME280;64333;50.138;14.332;2023-05-10T10:12:24;97678.13;;;30.29;22.51
75717;BME280;64333;50.138;14.332;2023-05-10T10:14:50;97671.56;;;30.38;21.81
75717;BME280;64333;50.138;14.332;2023-05-10T10:17:16;97669.91;;;30.89;20.86
75717;BME280;64333;50.138;14.332;2023-05-10T10:19:42;97655.88;;;31.07;21.48
75717;BME280;64333;50.138;14.332;2023-05-10T10:22:07;97660.81;;;31.60;21.44
75717;BME280;64333;50.138;14.332;2023-05-10T10:24:33;97662.66;;;31.03;21.28
75717;BME280;64333;50.138;14.332;2023-05-10T10:27:08;97666.72;;;31.75;20.00
75717;BME280;64333;50.138;14.332;2023-05-10T10:29:47;97657.69;;;32.56;18.95
75717;BME280;64333;50.138;14.332;2023-05-10T10:34:43;97660.06;;;33.90;18.58
75717;BME280;64333;50.138;14.332;2023-05-10T10:37:09;97659.31;;;34.24;18.29
75717;BME280;64333;50.138;14.332;2023-05-10T10:39:35;97669.25;;;33.35;17.90
75717;BME280;64333;50.138;14.332;2023-05-10T10:42:03;97653.34;;;32.37;19.27
75717;BME280;64333;50.138;14.332;2023-05-10T10:50:02;97663.72;;;32.94;18.31
75717;BME280;64333;50.138;14.332;2023-05-10T10:52:36;97652.84;;;33.61;18.83
75717;BME280;64333;50.138;14.332;2023-05-10T10:55:03;97668.16;;;34.54;17.56
75717;BME280;64333;50.138;14.332;2023-05-10T11:00:28;97647.75;;;35.78;16.24
75717;BME280;64333;50.138;14.332;2023-05-10T11:02:56;97648.91;;;35.82;15.89
75717;BME280;64333;50.138;14.332;2023-05-10T11:11:02;97630.00;;;35.77;15.64
75717;BME280;64333;50.138;14.332;2023-05-10T11:16:16;97629.31;;;37.02;14.86
75717;BME280;64333;50.138;14.332;2023-05-10T11:19:02;97626.28;;;37.15;15.16
75717;BME280;64333;50.138;14.332;2023-05-10T11:21:32;97629.50;;;37.55;14.77
75717;BME280;64333;50.138;14.332;2023-05-10T11:23:59;97634.84;;;38.03;13.49
75717;BME280;64333;50.138;14.332;2023-05-10T11:26:30;97617.69;;;37.87;14.13
75717;BME280;64333;50.138;14.332;2023-05-10T11:28:55;97618.81;;;38.18;14.04
75717;BME280;64333;50.138;14.332;2023-05-10T11:31:22;97627.28;;;36.38;15.47
75717;BME280;64333;50.138;14.332;2023-05-10T11:36:39;97624.63;;;38.05;14.55
75717;BME280;64333;50.138;14.332;2023-05-10T11:39:08;97627.34;;;38.73;13.20
75717;BME280;64333;50.138;14.332;2023-05-10T11:41:34;97626.50;;;37.78;14.15
75717;BME280;64333;50.138;14.332;2023-05-10T11:44:01;97619.66;;;39.58;12.96
75717;BME280;64333;50.138;14.332;2023-05-10T11:46:27;97635.00;;;38.18;13.91
75717;BME280;64333;50.138;14.332;2023-05-10T11:48:57;97623.63;;;38.16;13.76
75717;BME280;64333;50.138;14.332;2023-05-10T11:51:24;97617.50;;;35.71;15.84
75717;BME280;64333;50.138;14.332;2023-05-10T11:53:53;97621.47;;;32.78;17.95
75717;BME280;64333;50.138;14.332;2023-05-10T11:56:21;97611.00;;;31.41;20.50
75717;BME280;64333;50.138;14.332;2023-05-10T11:58:57;97616.16;;;29.82;22.19
75717;BME280;64333;50.138;14.332;2023-05-10T12:01:26;97603.06;;;28.73;23.77
75717;BME280;64333;50.138;14.332;2023-05-10T12:03:53;97609.94;;;28.27;24.19
75717;BME280;64333;50.138;14.332;2023-05-10T12:06:20;97625.63;;;27.24;25.01
75717;BME280;64333;50.138;14.332;2023-05-10T12:08:47;97621.94;;;26.09;26.84
75717;BME280;64333;50.138;14.332;2023-05-10T12:11:13;97629.94;;;25.78;27.95
75717;BME280;64333;50.138;14.332;2023-05-10T12:13:42;97614.72;;;25.35;28.09
75717;BME280;64333;50.138;14.332;2023-05-10T12:16:22;97614.03;;;25.03;29.17
75717;BME280;64333;50.138;14.332;2023-05-10T12:18:49;97625.59;;;24.63;29.57
75717;BME280;64333;50.138;14.332;2023-05-10T12:21:16;97605.88;;;24.19;30.56
75717;BME280;64333;50.138;14.332;2023-05-10T12:23:42;97619.75;;;23.98;31.28
75717;BME280;64333;50.138;14.332;2023-05-10T12:26:10;97631.56;;;23.46;32.01
75717;BME280;64333;50.138;14.332;2023-05-10T12:28:36;97627.59;;;23.34;32.96
75717;BME280;64333;50.138;14.332;2023-05-10T12:31:02;97621.06;;;23.04;32.66
75717;BME280;64333;50.138;14.332;2023-05-10T12:33:36;97629.19;;;22.77;33.47
75717;BME280;64333;50.138;14.332;2023-05-10T12:36:04;97637.78;;;22.54;32.83
75717;BME280;64333;50.138;14.332;2023-05-10T12:41:00;97625.72;;;22.18;34.73
75717;BME280;64333;50.138;14.332;2023-05-10T12:43:26;97627.13;;;21.87;35.58
75717;BME280;64333;50.138;14.332;2023-05-10T12:45:52;97608.19;;;21.66;35.48
75717;BME280;64333;50.138;14.332;2023-05-10T12:48:20;97626.41;;;21.77;35.50
75717;BME280;64333;50.138;14.332;2023-05-10T12:50:48;97625.19;;;21.71;36.25
75717;BME280;64333;50.138;14.332;2023-05-10T12:53:15;97627.13;;;21.87;36.21
75717;BME280;64333;50.138;14.332;2023-05-10T12:55:43;97624.25;;;21.98;35.77
75717;BME280;64333;50.138;14.332;2023-05-10T12:58:09;97623.34;;;22.07;35.66
75717;BME280;64333;50.138;14.332;2023-05-10T13:00:37;97630.84;;;22.02;35.00
75717;BME280;64333;50.138;14.332;2023-05-10T13:03:04;97638.16;;;21.90;36.01
75717;BME280;64333;50.138;14.332;2023-05-10T13:05:32;97635.47;;;21.82;36.24
75717;BME280;64333;50.138;14.332;2023-05-10T13:07:57;97636.03;;;21.68;36.36
75717;BME280;64333;50.138;14.332;2023-05-10T13:10:22;97631.78;;;21.58;36.25
75717;BME280;64333;50.138;14.332;2023-05-10T13:12:49;97630.56;;;21.52;36.34
75717;BME280;64333;50.138;14.332;2023-05-10T13:15:14;97632.47;;;21.60;37.33
75717;BME280;64333;50.138;14.332;2023-05-10T13:17:40;97634.63;;;21.47;36.77
75717;BME280;64333;50.138;14.332;2023-05-10T13:20:06;97634.34;;;21.50;37.57
75717;BME280;64333;50.138;14.332;2023-05-10T13:22:31;97622.16;;;21.49;36.74
75717;BME280;64333;50.138;14.332;2023-05-10T13:24:57;97631.25;;;21.54;37.22
75717;BME280;64333;50.138;14.332;2023-05-10T13:27:22;97622.69;;;21.52;36.69
75717;BME280;64333;50.138;14.332;2023-05-10T13:29:48;97622.59;;;21.62;37.60
75717;BME280;64333;50.138;14.332;2023-05-10T13:32:13;97633.78;;;21.73;37.35
75717;BME280;64333;50.138;14.332;2023-05-10T13:34:38;97623.69;;;21.69;37.12
75717;BME280;64333;50.138;14.332;2023-05-10T13:37:04;97632.78;;;21.74;37.02
75717;BME280;64333;50.138;14.332;2023-05-10T13:39:29;97628.56;;;21.46;37.83
75717;BME280;64333;50.138;14.332;2023-05-10T13:41:58;97625.94;;;21.64;38.04
75717;BME280;64333;50.138;14.332;2023-05-10T13:44:23;97631.47;;;21.61;36.88